createdAt,value
2023-02-27T00:00:56.291Z,12.50
2023-02-27T00:04:00.403Z,12.05
2023-02-27T00:07:03.342Z,14.90
2023-02-27T00:10:07.943Z,15.75
2023-02-27T00:13:10.828Z,13.57
2023-02-27T00:16:14.116Z,15.63
2023-02-27T00:19:16.918Z,16.35
2023-02-27T00:22:19.694Z,17.77
2023-02-27T00:25:22.581Z,15.68
2023-02-27T00:28:25.436Z,15.40
2023-02-27T00:31:28.723Z,17.60
2023-02-27T00:34:31.824Z,17.38
2023-02-27T00:37:34.872Z,15.73
2023-02-27T00:40:41.874Z,16.83
2023-02-27T00:43:44.621Z,14.50
2023-02-27T00:46:47.574Z,13.73
2023-02-27T00:49:50.365Z,11.55
2023-02-27T00:52:53.389Z,12.50
2023-02-27T00:55:57.310Z,13.30
2023-02-27T00:59:00.401Z,11.63
2023-02-27T01:02:03.823Z,13.88
2023-02-27T01:05:07.294Z,15.30
2023-02-27T01:08:10.132Z,14.20
2023-02-27T01:11:13.024Z,12.00
2023-02-27T01:14:15.787Z,12.70
2023-02-27T01:17:21.577Z,10.35
2023-02-27T01:20:24.493Z,9.63
2023-02-27T01:23:27.304Z,13.40
2023-02-27T01:26:30.061Z,10.95
2023-02-27T01:29:32.931Z,9.93
2023-02-27T01:32:38.179Z,10.27
2023-02-27T01:35:41.006Z,9.68
2023-02-27T01:38:43.867Z,10.43
2023-02-27T01:41:46.857Z,11.75
2023-02-27T01:45:02.675Z,9.00
2023-02-27T01:48:34.687Z,8.70
2023-02-27T01:51:42.048Z,9.88
2023-02-27T01:54:44.895Z,11.82
2023-02-27T01:57:49.655Z,11.90
2023-02-27T02:00:52.876Z,11.07
2023-02-27T02:03:58.270Z,9.65
2023-02-27T02:07:06.195Z,9.93
2023-02-27T02:10:12.671Z,10.38
2023-02-27T02:13:15.917Z,15.63
2023-02-27T02:16:27.687Z,9.87
2023-02-27T02:19:52.233Z,8.93
2023-02-27T02:23:32.609Z,8.90
2023-02-27T02:26:38.049Z,10.23
2023-02-27T02:29:52.904Z,13.63
2023-02-27T02:33:04.657Z,12.30
2023-02-27T02:36:22.022Z,12.52
2023-02-27T02:39:42.023Z,15.30
2023-02-27T02:43:26.615Z,12.55
2023-02-27T02:46:47.874Z,11.45
2023-02-27T02:50:01.633Z,10.60
2023-02-27T02:53:13.385Z,12.63
2023-02-27T02:56:28.273Z,13.15
2023-02-27T02:59:34.304Z,14.02
2023-02-27T03:02:48.200Z,14.65
2023-02-27T03:06:23.396Z,15.17
2023-02-27T03:09:34.449Z,15.35
2023-02-27T03:12:40.988Z,17.23
2023-02-27T03:16:07.942Z,16.63
2023-02-27T03:19:21.310Z,14.48
2023-02-27T03:22:47.554Z,18.03
2023-02-27T03:25:51.821Z,11.75
2023-02-27T03:29:01.746Z,14.32
2023-02-27T03:32:29.599Z,14.38
2023-02-27T03:35:38.553Z,17.38
2023-02-27T03:38:48.116Z,12.73
2023-02-27T03:42:07.354Z,13.75
2023-02-27T03:45:37.570Z,10.93
2023-02-27T03:48:44.850Z,16.23
2023-02-27T03:51:48.167Z,17.73
2023-02-27T03:54:58.092Z,13.30
2023-02-27T03:58:01.118Z,15.38
2023-02-27T04:01:04.710Z,11.35
2023-02-27T04:04:12.546Z,12.50
2023-02-27T04:07:55.054Z,14.43
2023-02-27T04:11:29.924Z,12.87
2023-02-27T04:14:38.792Z,9.25
2023-02-27T04:18:05.884Z,11.25
2023-02-27T04:21:18.510Z,9.35
2023-02-27T04:24:40.357Z,10.68
2023-02-27T04:27:51.804Z,10.33
2023-02-27T04:31:01.089Z,11.43
2023-02-27T04:34:29.720Z,9.93
2023-02-27T04:37:46.684Z,13.02
2023-02-27T04:41:00.741Z,12.25
2023-02-27T04:44:08.276Z,11.60
2023-02-27T04:47:14.394Z,9.35
2023-02-27T04:50:23.070Z,10.80
2023-02-27T04:53:31.394Z,9.45
2023-02-27T04:56:40.915Z,10.20
2023-02-27T04:59:48.410Z,12.93
2023-02-27T05:03:09.403Z,13.30
2023-02-27T05:06:15.338Z,12.05
2023-02-27T05:09:31.691Z,11.65
2023-02-27T05:12:34.356Z,12.45
2023-02-27T05:15:43.831Z,11.60
2023-02-27T05:18:47.122Z,9.85
2023-02-27T05:22:00.536Z,10.65
2023-02-27T05:25:31.128Z,10.65
2023-02-27T05:28:42.324Z,13.63
2023-02-27T05:31:54.672Z,14.60
2023-02-27T05:34:57.468Z,12.30
2023-02-27T05:38:09.929Z,12.90
2023-02-27T05:41:18.237Z,10.65
2023-02-27T05:44:25.463Z,10.50
2023-02-27T05:47:32.141Z,10.07
2023-02-27T05:50:37.955Z,13.43
2023-02-27T05:53:46.300Z,9.82
2023-02-27T05:56:52.183Z,14.85
2023-02-27T06:00:21.431Z,13.35
2023-02-27T06:03:25.237Z,10.33
2023-02-27T06:06:30.474Z,11.75
2023-02-27T06:09:34.008Z,10.35
2023-02-27T06:12:36.821Z,10.90
2023-02-27T06:15:39.579Z,12.55
2023-02-27T06:18:42.434Z,11.50
2023-02-27T06:21:45.143Z,12.85
2023-02-27T06:24:47.870Z,12.98
2023-02-27T06:27:50.745Z,12.75
2023-02-27T06:30:55.437Z,13.88
2023-02-27T06:33:58.277Z,9.63
2023-02-27T06:37:03.855Z,11.10
2023-02-27T06:40:11.683Z,10.52
2023-02-27T06:43:15.637Z,11.15
2023-02-27T06:46:18.533Z,10.88
2023-02-27T06:49:21.499Z,10.07
2023-02-27T06:52:24.257Z,10.52
2023-02-27T06:55:26.960Z,11.70
2023-02-27T06:58:29.728Z,10.82
2023-02-27T07:01:32.793Z,13.25
2023-02-27T07:04:35.674Z,8.73
2023-02-27T07:07:39.319Z,10.77
2023-02-27T07:10:47.326Z,9.57
2023-02-27T07:13:50.211Z,10.73
2023-02-27T07:16:54.195Z,12.93
2023-02-27T07:19:57.130Z,9.20
2023-02-27T07:22:59.871Z,11.65
2023-02-27T07:26:02.687Z,11.25
2023-02-27T07:29:06.100Z,13.48
2023-02-27T07:32:09.069Z,10.93
2023-02-27T07:35:12.369Z,10.77
2023-02-27T07:38:15.168Z,12.35
2023-02-27T07:41:30.020Z,9.95
2023-02-27T07:44:36.232Z,11.77
2023-02-27T07:47:38.985Z,9.10
2023-02-27T07:50:41.762Z,10.70
2023-02-27T07:53:44.778Z,10.13
2023-02-27T07:56:47.511Z,10.77
2023-02-27T07:59:50.337Z,10.45
2023-02-27T08:02:53.130Z,10.75
2023-02-27T08:05:55.845Z,11.73
2023-02-27T08:08:58.628Z,12.05
2023-02-27T08:12:03.084Z,11.52
2023-02-27T08:15:06.502Z,11.95
2023-02-27T08:18:09.414Z,11.40
2023-02-27T08:21:12.258Z,12.37
2023-02-27T08:24:15.127Z,10.30
2023-02-27T08:27:17.990Z,12.75
2023-02-27T08:30:21.018Z,8.60
2023-02-27T08:33:24.813Z,10.68
2023-02-27T08:36:27.974Z,8.53
2023-02-27T08:39:30.969Z,9.50
2023-02-27T08:42:34.455Z,8.18
2023-02-27T08:45:37.300Z,9.18
2023-02-27T08:48:42.794Z,8.43
2023-02-27T08:51:45.773Z,11.37
2023-02-27T08:54:48.636Z,10.27
2023-02-27T08:57:51.395Z,12.05
2023-02-27T09:00:54.869Z,10.85
2023-02-27T09:03:57.781Z,10.93
2023-02-27T09:07:00.593Z,10.20
2023-02-27T09:10:03.815Z,8.40
2023-02-27T09:13:06.809Z,9.40
2023-02-27T09:16:10.417Z,10.07
2023-02-27T09:19:14.559Z,9.10
2023-02-27T09:22:18.789Z,9.37
2023-02-27T09:25:21.522Z,9.30
2023-02-27T09:28:24.322Z,8.50
2023-02-27T09:31:32.207Z,9.55
2023-02-27T09:34:36.135Z,10.82
2023-02-27T09:37:39.459Z,8.40
2023-02-27T09:40:44.805Z,8.27
2023-02-27T09:43:51.636Z,8.95
2023-02-27T09:46:54.845Z,7.97
2023-02-27T09:50:06.402Z,6.75
2023-02-27T09:53:32.066Z,7.20
2023-02-27T09:56:56.996Z,8.82
2023-02-27T10:00:40.528Z,8.98
2023-02-27T10:03:43.498Z,6.45
2023-02-27T10:06:50.410Z,6.38
2023-02-27T10:10:14.461Z,6.40
2023-02-27T10:13:39.565Z,8.68
2023-02-27T10:16:43.279Z,7.47
2023-02-27T10:19:48.404Z,8.32
2023-02-27T10:22:54.556Z,7.13
2023-02-27T10:25:58.295Z,7.63
2023-02-27T10:29:15.544Z,8.25
2023-02-27T10:32:27.259Z,8.45
2023-02-27T10:35:36.181Z,7.28
2023-02-27T10:38:44.866Z,9.45
2023-02-27T10:41:48.921Z,6.93
2023-02-27T10:44:53.843Z,6.75
2023-02-27T10:47:59.081Z,8.35
2023-02-27T10:51:25.262Z,7.85
2023-02-27T10:54:30.732Z,9.23
2023-02-27T10:57:43.397Z,7.63
2023-02-27T11:00:59.389Z,10.23
2023-02-27T11:04:02.206Z,9.40
2023-02-27T11:07:09.242Z,7.78
2023-02-27T11:10:15.147Z,6.18
2023-02-27T11:13:23.355Z,10.13
2023-02-27T11:16:26.963Z,8.15
2023-02-27T11:19:34.214Z,10.65
2023-02-27T11:22:37.649Z,9.30
2023-02-27T11:25:40.551Z,9.27
2023-02-27T11:28:43.876Z,8.77
2023-02-27T11:31:55.982Z,9.20
2023-02-27T11:34:58.857Z,7.60
2023-02-27T11:38:07.642Z,7.47
2023-02-27T11:41:11.166Z,8.13
2023-02-27T11:44:34.589Z,8.13
2023-02-27T11:47:51.463Z,8.20
2023-02-27T11:51:12.306Z,6.97
2023-02-27T11:54:48.268Z,7.97
2023-02-27T11:57:58.904Z,7.57
2023-02-27T12:01:06.172Z,7.30
2023-02-27T12:04:29.072Z,7.60
2023-02-27T12:07:38.890Z,7.60
2023-02-27T12:11:12.397Z,9.07
2023-02-27T12:14:27.727Z,10.73
2023-02-27T12:17:38.910Z,9.07
2023-02-27T12:20:56.793Z,12.15
2023-02-27T12:24:10.317Z,8.75
2023-02-27T12:27:21.784Z,10.50
2023-02-27T12:30:28.252Z,11.07
2023-02-27T12:33:34.535Z,9.73
2023-02-27T12:36:38.504Z,10.65
2023-02-27T12:39:44.850Z,10.52
2023-02-27T12:43:08.184Z,8.20
2023-02-27T12:46:29.503Z,9.00
2023-02-27T12:49:44.200Z,8.70
2023-02-27T12:52:58.974Z,9.70
2023-02-27T12:56:10.231Z,9.82
2023-02-27T12:59:46.904Z,10.52
2023-02-27T13:02:52.313Z,8.85
2023-02-27T13:06:03.119Z,9.57
2023-02-27T13:09:40.135Z,11.85
2023-02-27T13:12:59.310Z,8.25
2023-02-27T13:16:25.984Z,9.35
2023-02-27T13:19:58.040Z,8.70
2023-02-27T13:23:18.876Z,7.90
2023-02-27T13:26:34.890Z,7.95
2023-02-27T13:29:41.619Z,8.68
2023-02-27T13:33:07.581Z,9.75
2023-02-27T13:36:13.069Z,8.95
2023-02-27T13:39:44.160Z,9.47
2023-02-27T13:42:47.036Z,7.32
2023-02-27T13:46:03.697Z,9.02
2023-02-27T13:49:10.737Z,10.13
2023-02-27T13:52:30.061Z,9.27
2023-02-27T13:55:37.861Z,7.83
2023-02-27T13:58:41.904Z,13.32
2023-02-27T14:01:57.791Z,15.23
2023-02-27T14:05:06.736Z,7.80
2023-02-27T14:08:20.964Z,8.57
2023-02-27T14:11:39.888Z,9.77
2023-02-27T14:14:46.257Z,10.82
2023-02-27T14:18:02.446Z,8.48
2023-02-27T14:21:12.604Z,7.15
2023-02-27T14:24:17.333Z,7.72
2023-02-27T14:27:49.338Z,11.00
2023-02-27T14:31:06.147Z,8.65
2023-02-27T14:34:15.531Z,8.25
2023-02-27T14:37:23.559Z,7.30
2023-02-27T14:40:34.180Z,9.55
2023-02-27T14:43:46.705Z,8.07
2023-02-27T14:46:50.475Z,6.97
2023-02-27T14:49:53.521Z,9.32
2023-02-27T14:52:56.329Z,8.32
2023-02-27T14:56:00.580Z,7.53
2023-02-27T14:59:04.941Z,9.77
2023-02-27T15:02:43.190Z,8.00
2023-02-27T15:05:48.022Z,9.77
2023-02-27T15:08:54.334Z,10.95
2023-02-27T15:12:04.049Z,8.27
2023-02-27T15:15:09.940Z,7.83
2023-02-27T15:18:14.551Z,9.75
2023-02-27T15:21:20.280Z,8.85
2023-02-27T15:24:26.172Z,9.45
2023-02-27T15:27:30.268Z,10.07
2023-02-27T15:30:33.399Z,9.13
2023-02-27T15:33:37.050Z,9.68
2023-02-27T15:36:46.976Z,8.00
2023-02-27T15:39:51.623Z,9.93
2023-02-27T15:42:55.381Z,8.02
2023-02-27T15:45:58.586Z,7.77
2023-02-27T15:49:01.803Z,14.50
2023-02-27T15:52:25.441Z,10.43
2023-02-27T15:55:32.149Z,11.55
2023-02-27T15:58:38.412Z,13.45
2023-02-27T16:01:41.928Z,10.57
2023-02-27T16:04:46.580Z,9.35
2023-02-27T16:07:50.378Z,8.50
2023-02-27T16:10:53.449Z,16.60
2023-02-27T16:13:57.887Z,13.15
2023-02-27T16:17:00.900Z,12.63
2023-02-27T16:20:41.487Z,9.55
2023-02-27T16:23:45.538Z,9.68
2023-02-27T16:26:52.119Z,9.00
2023-02-27T16:29:57.556Z,6.03
2023-02-27T16:33:02.052Z,8.83
2023-02-27T16:36:17.184Z,6.70
2023-02-27T16:39:20.232Z,8.07
2023-02-27T16:42:23.270Z,6.50
2023-02-27T16:45:28.735Z,7.45
2023-02-27T16:48:31.836Z,6.27
2023-02-27T16:51:35.000Z,8.35
2023-02-27T16:54:37.976Z,6.80
2023-02-27T16:57:40.922Z,7.40
2023-02-27T17:00:44.244Z,8.73
2023-02-27T17:03:47.478Z,6.27
2023-02-27T17:06:50.519Z,7.22
2023-02-27T17:09:53.647Z,6.57
2023-02-27T17:12:56.566Z,7.60
2023-02-27T17:16:00.059Z,8.48
2023-02-27T17:19:03.072Z,8.70
2023-02-27T17:22:06.612Z,8.15
2023-02-27T17:25:10.849Z,7.75
2023-02-27T17:28:13.648Z,10.60
2023-02-27T17:31:16.475Z,8.93
2023-02-27T17:34:20.615Z,9.33
2023-02-27T17:37:23.823Z,13.13
2023-02-27T17:40:27.479Z,10.15
2023-02-27T17:43:30.398Z,10.05
2023-02-27T17:46:33.585Z,12.90
2023-02-27T17:49:36.508Z,14.33
2023-02-27T17:52:40.076Z,12.02
2023-02-27T17:55:42.783Z,11.18
2023-02-27T17:58:45.706Z,13.15
2023-02-27T18:01:48.510Z,15.85
2023-02-27T18:04:53.804Z,23.83
2023-02-27T18:07:56.888Z,19.95
2023-02-27T18:11:00.252Z,19.35
2023-02-27T18:14:06.538Z,16.38
2023-02-27T18:17:12.694Z,17.02
2023-02-27T18:20:15.863Z,16.67
2023-02-27T18:23:19.664Z,29.25
2023-02-27T18:26:32.733Z,28.85
2023-02-27T18:29:36.910Z,21.33
2023-02-27T18:32:39.908Z,15.13
2023-02-27T18:35:44.175Z,31.20
2023-02-27T18:38:47.668Z,26.55
2023-02-27T18:41:52.037Z,21.13
2023-02-27T18:44:56.236Z,20.58
2023-02-27T18:47:59.351Z,16.50
2023-02-27T18:51:05.952Z,18.27
2023-02-27T18:54:13.015Z,17.75
2023-02-27T18:57:16.396Z,21.17
2023-02-27T19:00:21.779Z,15.10
2023-02-27T19:03:25.224Z,17.73
2023-02-27T19:06:28.773Z,14.40
2023-02-27T19:09:32.918Z,16.10
2023-02-27T19:12:36.188Z,16.13
2023-02-27T19:15:39.611Z,15.40
2023-02-27T19:18:42.923Z,14.60
2023-02-27T19:21:48.083Z,13.43
2023-02-27T19:24:51.178Z,16.10
2023-02-27T19:27:55.684Z,12.88
2023-02-27T19:30:58.938Z,16.77
2023-02-27T19:34:03.209Z,15.88
2023-02-27T19:37:06.481Z,14.37
2023-02-27T19:40:11.113Z,13.18
2023-02-27T19:43:15.479Z,12.85
2023-02-27T19:46:24.964Z,11.45
2023-02-27T19:49:28.089Z,10.60
2023-02-27T19:52:31.401Z,11.10
2023-02-27T19:55:34.736Z,12.30
2023-02-27T19:58:39.466Z,12.75
2023-02-27T20:01:42.593Z,11.88
2023-02-27T20:04:45.809Z,11.35
2023-02-27T20:07:48.713Z,11.40
2023-02-27T20:10:59.589Z,11.85
2023-02-27T20:14:02.889Z,11.50
2023-02-27T20:17:06.544Z,11.68
2023-02-27T20:20:10.400Z,9.25
2023-02-27T20:23:15.529Z,10.47
2023-02-27T20:26:24.053Z,8.65
2023-02-27T20:29:28.412Z,9.13
2023-02-27T20:32:31.361Z,10.57
2023-02-27T20:35:37.946Z,9.07
2023-02-27T20:38:41.504Z,10.93
2023-02-27T20:41:45.127Z,8.70
2023-02-27T20:44:49.204Z,14.63
2023-02-27T20:47:52.233Z,16.27
2023-02-27T20:50:55.467Z,15.10
2023-02-27T20:54:00.196Z,12.97
2023-02-27T20:57:04.310Z,12.70
2023-02-27T21:00:11.736Z,11.32
2023-02-27T21:03:18.022Z,8.52
2023-02-27T21:06:21.296Z,10.40
2023-02-27T21:09:24.016Z,8.07
2023-02-27T21:12:26.758Z,8.25
2023-02-27T21:15:31.314Z,8.40
2023-02-27T21:18:34.272Z,9.52
2023-02-27T21:21:37.416Z,8.60
2023-02-27T21:24:40.203Z,7.07
2023-02-27T21:27:42.926Z,7.43
2023-02-27T21:30:45.802Z,8.43
2023-02-27T21:33:49.911Z,6.88
2023-02-27T21:36:53.772Z,6.75
2023-02-27T21:39:57.408Z,9.27
2023-02-27T21:43:00.207Z,6.68
2023-02-27T21:46:13.502Z,9.02
2023-02-27T21:49:22.721Z,7.60
2023-02-27T21:52:25.530Z,8.93
2023-02-27T21:55:28.329Z,7.97
2023-02-27T21:58:31.515Z,14.98
2023-02-27T22:01:34.846Z,9.27
2023-02-27T22:04:37.573Z,7.30
2023-02-27T22:07:40.342Z,8.27
2023-02-27T22:10:46.024Z,6.50
2023-02-27T22:13:49.149Z,6.78
2023-02-27T22:16:51.861Z,9.93
2023-02-27T22:19:54.810Z,7.07
2023-02-27T22:22:57.640Z,5.68
2023-02-27T22:26:13.020Z,6.97
2023-02-27T22:29:17.173Z,7.53
2023-02-27T22:32:20.119Z,10.93
2023-02-27T22:35:23.584Z,7.95
2023-02-27T22:38:26.703Z,7.20
2023-02-27T22:41:35.753Z,8.43
2023-02-27T22:44:38.567Z,8.20
2023-02-27T22:47:41.389Z,7.53
2023-02-27T22:50:44.108Z,9.43
2023-02-27T22:53:47.020Z,12.63
2023-02-27T22:56:54.713Z,8.13
2023-02-27T22:59:58.638Z,10.63
2023-02-27T23:03:01.358Z,7.72
2023-02-27T23:06:06.250Z,13.68
2023-02-27T23:09:14.756Z,9.27
2023-02-27T23:12:17.529Z,10.57
2023-02-27T23:15:20.354Z,12.20
2023-02-27T23:18:23.125Z,9.13
2023-02-27T23:21:32.012Z,9.73
2023-02-27T23:24:35.003Z,7.82
2023-02-27T23:27:38.640Z,11.57
2023-02-27T23:30:41.458Z,9.20
2023-02-27T23:33:44.290Z,10.48
2023-02-27T23:36:47.033Z,12.88
2023-02-27T23:39:49.714Z,8.27
2023-02-27T23:42:52.720Z,9.00
2023-02-27T23:45:55.652Z,8.13
2023-02-27T23:48:59.621Z,10.00
2023-02-27T23:52:03.412Z,14.68
2023-02-27T23:55:06.903Z,10.20
2023-02-27T23:58:11.281Z,9.17
